Time;durP1;ratioP1;P1;durP2;ratioP2;P2;SDS_P1;SDS_P2;PMS_P1;PMS_P2;Temp;Humidity;BMP_temperature;BMP_pressure;BME280_temperature;BME280_humidity;BME280_pressure;Samples;Min_cycle;Max_cycle;Signal;HPM_P1;HPM_P2
2021/05/16 00:00:24;;;;;;;1.30;1.20;;;9.60;99.90;;;;;;4898290;29;20218;-65
2021/05/16 00:02:51;;;;;;;4.43;1.30;;;9.60;99.90;;;;;;4898651;29;20616;-65
2021/05/16 00:05:18;;;;;;;1.80;1.07;;;9.60;99.90;;;;;;4898773;29;20566;-65
2021/05/16 00:07:44;;;;;;;2.87;1.50;;;9.60;99.90;;;;;;4898834;29;20450;-65
2021/05/16 00:10:12;;;;;;;1.63;1.30;;;9.50;99.90;;;;;;4898355;29;20423;-65
2021/05/16 00:12:38;;;;;;;5.80;1.63;;;9.50;99.90;;;;;;4899022;29;20186;-65
2021/05/16 00:15:06;;;;;;;3.97;1.43;;;9.50;99.90;;;;;;4898752;29;20429;-65
2021/05/16 00:17:32;;;;;;;1.30;1.20;;;9.50;99.90;;;;;;4897295;29;20450;-65
2021/05/16 00:19:58;;;;;;;7.63;2.50;;;9.50;99.90;;;;;;4897951;29;20510;-65
2021/05/16 00:22:24;;;;;;;1.50;1.10;;;9.60;99.90;;;;;;4898418;29;20238;-65
2021/05/16 00:24:49;;;;;;;5.63;2.67;;;9.60;99.90;;;;;;4898468;29;20281;-65
2021/05/16 00:27:15;;;;;;;1.83;1.30;;;9.60;99.90;;;;;;4898386;29;20441;-65
2021/05/16 00:29:40;;;;;;;3.03;1.23;;;9.60;99.90;;;;;;4897777;29;20646;-65
2021/05/16 00:32:06;;;;;;;1.90;1.60;;;9.60;99.90;;;;;;4898463;29;20190;-64
2021/05/16 00:34:32;;;;;;;2.50;1.50;;;9.70;99.90;;;;;;4898207;29;20175;-65
2021/05/16 00:36:58;;;;;;;2.37;1.57;;;9.70;99.90;;;;;;4913280;23;20309;-65
2021/05/16 00:39:24;;;;;;;1.23;1.13;;;9.70;99.90;;;;;;4916505;29;20703;-65
2021/05/16 00:41:51;;;;;;;3.23;1.40;;;9.70;99.90;;;;;;4917110;29;20462;-64
2021/05/16 00:44:17;;;;;;;1.93;1.20;;;9.70;99.90;;;;;;4917048;29;20648;-64
2021/05/16 00:46:42;;;;;;;2.70;1.37;;;9.70;99.90;;;;;;4909927;29;20499;-65
2021/05/16 00:49:08;;;;;;;3.23;1.20;;;9.70;99.90;;;;;;4897499;29;20218;-65
2021/05/16 00:51:34;;;;;;;1.60;1.30;;;9.60;99.90;;;;;;4898251;29;20266;-65
2021/05/16 00:53:59;;;;;;;3.77;1.70;;;9.60;99.90;;;;;;4898161;29;20265;-64
2021/05/16 00:56:25;;;;;;;2.40;1.87;;;9.70;99.90;;;;;;4896624;29;20680;-64
2021/05/16 00:58:50;;;;;;;3.37;1.27;;;9.70;99.90;;;;;;4897305;29;20554;-65
2021/05/16 01:01:18;;;;;;;1.33;1.23;;;9.70;99.90;;;;;;4896832;29;20179;-65
2021/05/16 01:03:44;;;;;;;4.83;1.83;;;9.70;99.90;;;;;;4897995;29;20179;-65
2021/05/16 01:06:10;;;;;;;5.23;2.33;;;9.70;99.90;;;;;;4897991;29;20767;-65
2021/05/16 01:08:35;;;;;;;6.63;1.90;;;9.70;99.90;;;;;;4898050;29;20190;-65
2021/05/16 01:11:01;;;;;;;2.50;2.10;;;9.70;99.90;;;;;;4897381;29;20179;-65
2021/05/16 01:13:27;;;;;;;1.90;1.30;;;9.70;99.90;;;;;;4897557;29;20672;-65
2021/05/16 01:15:53;;;;;;;2.47;1.63;;;9.70;99.90;;;;;;4897490;29;20604;-65
2021/05/16 01:18:19;;;;;;;1.50;1.33;;;9.70;99.90;;;;;;4897524;29;20420;-66
2021/05/16 01:20:47;;;;;;;5.27;1.97;;;9.70;99.90;;;;;;4896890;29;20479;-64
2021/05/16 01:23:29;;;;;;;2.20;1.30;;;9.70;99.90;;;;;;4897500;29;20285;-65
2021/05/16 01:25:54;;;;;;;4.87;1.60;;;9.70;99.90;;;;;;4897696;29;20740;-65
2021/05/16 01:28:21;;;;;;;2.57;1.70;;;9.70;99.90;;;;;;4897323;29;20506;-64
2021/05/16 01:30:48;;;;;;;2.50;1.90;;;9.70;99.90;;;;;;4896915;29;20182;-64
2021/05/16 01:33:14;;;;;;;1.40;1.27;;;9.70;99.90;;;;;;4897546;29;20953;-65
2021/05/16 01:35:40;;;;;;;2.07;1.43;;;9.70;99.90;;;;;;4897518;29;20470;-65
2021/05/16 01:38:07;;;;;;;1.50;1.40;;;9.70;99.90;;;;;;4897335;29;20834;-65
2021/05/16 01:40:33;;;;;;;1.67;1.50;;;9.70;99.90;;;;;;4896420;29;20262;-65
2021/05/16 01:42:59;;;;;;;5.03;1.83;;;9.60;99.90;;;;;;4897150;29;20487;-65
2021/05/16 01:45:27;;;;;;;3.77;1.70;;;9.50;99.90;;;;;;4897539;29;20423;-65
2021/05/16 01:47:57;;;;;;;2.40;1.80;;;9.40;99.90;;;;;;4897489;29;20304;-64
2021/05/16 01:50:28;;;;;;;1.90;1.80;;;9.20;99.90;;;;;;4896352;29;20424;-65
2021/05/16 01:52:54;;;;;;;1.80;1.70;;;9.10;99.90;;;;;;4896994;29;20419;-65
2021/05/16 01:55:20;;;;;;;2.90;2.13;;;9.10;99.90;;;;;;4896821;29;20455;-65
2021/05/16 01:57:47;;;;;;;2.60;1.77;;;9.00;99.90;;;;;;4896719;29;20210;-65
2021/05/16 02:00:29;;;;;;;2.00;1.80;;;9.00;99.90;;;;;;4896419;29;20810;-65
2021/05/16 02:02:55;;;;;;;4.93;2.20;;;9.00;99.90;;;;;;4896686;29;20984;-66
2021/05/16 02:05:21;;;;;;;2.97;2.23;;;9.00;99.90;;;;;;4896758;29;20494;-65
2021/05/16 02:07:48;;;;;;;3.23;2.63;;;8.90;99.90;;;;;;4896551;29;20447;-65
2021/05/16 02:10:15;;;;;;;2.47;2.27;;;8.90;99.90;;;;;;4896125;29;20186;-64
2021/05/16 02:12:41;;;;;;;2.27;1.77;;;8.90;99.90;;;;;;4896646;29;20433;-64
2021/05/16 02:15:10;;;;;;;2.83;2.53;;;8.90;99.90;;;;;;4895211;29;20812;-65
2021/05/16 02:17:36;;;;;;;3.93;2.07;;;8.90;99.90;;;;;;4896442;29;20231;-65
2021/05/16 02:20:02;;;;;;;2.37;2.07;;;8.90;99.90;;;;;;4895715;29;20795;-65
2021/05/16 02:22:27;;;;;;;2.53;1.70;;;8.90;99.90;;;;;;4895776;29;20217;-64
2021/05/16 02:24:53;;;;;;;3.83;2.37;;;8.90;99.90;;;;;;4896441;29;20175;-65
2021/05/16 02:27:19;;;;;;;3.07;2.27;;;8.90;99.90;;;;;;4896551;29;20258;-66
2021/05/16 02:29:45;;;;;;;2.60;2.40;;;8.90;99.90;;;;;;4895900;29;20206;-66
2021/05/16 02:32:11;;;;;;;4.03;2.10;;;8.90;99.90;;;;;;4896331;29;20776;-66
2021/05/16 02:34:36;;;;;;;3.00;2.40;;;8.80;99.90;;;;;;4896225;29;20217;-65
2021/05/16 02:37:02;;;;;;;10.90;2.97;;;8.80;99.90;;;;;;4895943;29;20554;-65
2021/05/16 02:39:28;;;;;;;4.83;3.37;;;8.80;99.90;;;;;;4894265;29;20238;-66
2021/05/16 02:41:53;;;;;;;2.27;2.07;;;8.80;99.90;;;;;;4896181;29;20194;-65
2021/05/16 02:44:19;;;;;;;4.43;2.40;;;8.80;99.90;;;;;;4895984;29;20182;-65
2021/05/16 02:46:46;;;;;;;4.93;3.17;;;8.80;99.90;;;;;;4895911;29;20199;-65
2021/05/16 02:49:11;;;;;;;4.53;3.67;;;8.80;99.90;;;;;;4895449;29;20929;-65
2021/05/16 02:51:37;;;;;;;4.40;3.40;;;8.90;99.90;;;;;;4896212;29;20419;-65
2021/05/16 02:54:03;;;;;;;7.43;2.20;;;8.90;99.90;;;;;;4896054;29;20195;-65
2021/05/16 02:56:29;;;;;;;3.13;2.80;;;8.90;99.90;;;;;;4895853;29;20230;-65
2021/05/16 02:58:54;;;;;;;2.30;2.10;;;8.90;99.90;;;;;;4895210;29;20466;-65
2021/05/16 03:01:20;;;;;;;4.27;2.40;;;9.00;99.90;;;;;;4895825;29;20182;-65
2021/05/16 03:03:46;;;;;;;5.47;2.93;;;9.00;99.90;;;;;;4894568;29;20179;-65
2021/05/16 03:06:11;;;;;;;3.50;2.30;;;9.00;99.90;;;;;;4895581;29;20760;-66
2021/05/16 03:08:37;;;;;;;3.30;2.10;;;9.00;99.90;;;;;;4895288;29;20172;-66
2021/05/16 03:11:03;;;;;;;3.30;2.50;;;9.00;99.90;;;;;;4895678;29;20474;-65
2021/05/16 03:13:29;;;;;;;4.30;2.00;;;9.10;99.90;;;;;;4895752;29;20187;-65
2021/05/16 03:15:55;;;;;;;3.13;2.37;;;9.10;99.90;;;;;;4895613;29;20482;-65
2021/05/16 03:18:21;;;;;;;4.10;1.90;;;9.10;99.90;;;;;;4895569;29;20687;-65
2021/05/16 03:20:46;;;;;;;5.10;1.90;;;9.10;99.90;;;;;;4894863;29;20423;-64
2021/05/16 03:23:12;;;;;;;2.77;2.43;;;9.10;99.90;;;;;;4895766;29;20540;-65
2021/05/16 03:25:38;;;;;;;2.43;2.23;;;9.10;99.90;;;;;;4899122;29;20531;-66
2021/05/16 03:28:03;;;;;;;3.43;2.43;;;9.20;99.90;;;;;;4899499;29;20195;-65
2021/05/16 03:30:29;;;;;;;2.20;2.00;;;9.20;99.90;;;;;;4898714;29;20282;-65
2021/05/16 03:32:55;;;;;;;3.00;1.90;;;9.20;99.90;;;;;;4899437;29;20446;-65
2021/05/16 03:35:21;;;;;;;2.20;1.60;;;9.20;99.90;;;;;;4899623;29;20221;-65
2021/05/16 03:37:46;;;;;;;3.30;2.40;;;9.30;99.90;;;;;;4899647;29;20218;-65
2021/05/16 03:40:12;;;;;;;4.13;2.40;;;9.30;99.90;;;;;;4898738;29;20235;-64
2021/05/16 03:42:38;;;;;;;2.00;1.90;;;9.30;99.90;;;;;;4898965;29;20215;-65
2021/05/16 03:45:05;;;;;;;1.97;1.73;;;9.30;99.90;;;;;;4899190;29;20910;-65
2021/05/16 03:47:31;;;;;;;3.00;2.17;;;9.30;99.90;;;;;;4899052;29;20648;-65
2021/05/16 03:49:57;;;;;;;3.60;2.50;;;9.30;99.90;;;;;;4898902;29;20453;-65
2021/05/16 03:52:22;;;;;;;2.63;2.40;;;9.30;99.90;;;;;;4899051;29;20187;-65
2021/05/16 03:54:48;;;;;;;3.23;1.80;;;9.40;99.90;;;;;;4899110;29;20179;-65
2021/05/16 03:57:17;;;;;;;8.03;2.20;;;9.40;99.90;;;;;;4899137;29;20455;-65
2021/05/16 03:59:44;;;;;;;2.17;1.83;;;9.40;99.90;;;;;;4897522;29;21005;-65
2021/05/16 04:02:10;;;;;;;3.20;1.80;;;9.40;99.90;;;;;;4898994;29;20469;-65
2021/05/16 04:04:35;;;;;;;5.83;1.70;;;9.40;99.90;;;;;;4898809;29;20426;-65
2021/05/16 04:07:01;;;;;;;3.07;2.70;;;9.40;99.90;;;;;;4898753;29;21073;-64
2021/05/16 04:09:27;;;;;;;2.47;1.83;;;9.40;99.90;;;;;;4898190;29;20178;-65
2021/05/16 04:11:53;;;;;;;4.87;2.30;;;9.40;99.90;;;;;;4898705;29;20188;-65
2021/05/16 04:14:20;;;;;;;6.23;2.00;;;9.40;99.90;;;;;;4898692;29;20187;-65
2021/05/16 04:16:46;;;;;;;1.90;1.80;;;9.40;99.90;;;;;;4898553;29;20454;-65
2021/05/16 04:19:11;;;;;;;2.10;2.00;;;9.40;99.90;;;;;;4897933;29;20991;-65
2021/05/16 04:21:37;;;;;;;2.27;2.07;;;9.40;99.90;;;;;;4898479;29;20202;-65
2021/05/16 04:24:03;;;;;;;2.40;2.00;;;9.40;99.90;;;;;;4898622;29;20591;-65
2021/05/16 04:26:28;;;;;;;2.40;2.00;;;9.30;99.90;;;;;;4898437;29;20524;-65
2021/05/16 04:28:54;;;;;;;3.33;2.20;;;9.30;99.90;;;;;;4897797;29;20479;-65
2021/05/16 04:31:19;;;;;;;4.10;1.67;;;9.30;99.90;;;;;;4898472;29;20660;-65
2021/05/16 04:33:45;;;;;;;2.40;1.57;;;9.20;99.90;;;;;;4898478;29;20179;-64
2021/05/16 04:36:10;;;;;;;2.30;2.10;;;9.20;99.90;;;;;;4897004;29;20288;-66
2021/05/16 04:38:36;;;;;;;2.20;1.83;;;9.20;99.90;;;;;;4898544;29;20648;-65
2021/05/16 04:41:02;;;;;;;4.70;2.30;;;9.20;99.90;;;;;;4898019;29;20171;-67
2021/05/16 04:43:27;;;;;;;2.83;1.87;;;9.20;99.90;;;;;;4898266;29;20221;-65
2021/05/16 04:45:53;;;;;;;2.60;2.33;;;9.20;99.90;;;;;;4898078;29;20178;-65
2021/05/16 04:48:18;;;;;;;2.00;1.70;;;9.20;99.90;;;;;;4898043;29;20187;-65
2021/05/16 04:50:44;;;;;;;1.50;1.33;;;9.30;99.90;;;;;;4897340;29;20182;-66
2021/05/16 04:53:10;;;;;;;2.63;1.57;;;9.30;99.90;;;;;;4898274;29;20705;-65
2021/05/16 04:55:36;;;;;;;1.70;1.37;;;9.30;99.90;;;;;;4897938;29;20262;-64
2021/05/16 04:58:01;;;;;;;1.40;1.30;;;9.30;99.90;;;;;;4897898;29;20439;-65
2021/05/16 05:00:27;;;;;;;2.30;1.63;;;9.30;99.90;;;;;;4897153;29;20235;-65
2021/05/16 05:02:54;;;;;;;1.83;1.30;;;9.40;99.90;;;;;;4897673;29;20681;-65
2021/05/16 05:05:20;;;;;;;5.40;1.70;;;9.40;99.90;;;;;;4898133;29;20229;-64
2021/05/16 05:07:45;;;;;;;2.90;1.87;;;9.50;99.90;;;;;;4896772;29;20508;-65
2021/05/16 05:10:12;;;;;;;1.60;1.50;;;9.50;99.90;;;;;;4897052;29;20474;-65
2021/05/16 05:12:38;;;;;;;2.43;1.60;;;9.60;99.90;;;;;;4897614;29;20175;-65
2021/05/16 05:15:05;;;;;;;4.60;1.73;;;9.60;99.90;;;;;;4897750;29;20430;-65
2021/05/16 05:17:30;;;;;;;3.63;1.50;;;9.60;99.90;;;;;;4897602;29;20227;-65
2021/05/16 05:19:56;;;;;;;1.57;1.40;;;9.60;99.90;;;;;;4895686;29;20451;-65
2021/05/16 05:22:21;;;;;;;1.80;1.50;;;9.70;99.90;;;;;;4896072;29;20206;-65
2021/05/16 05:24:47;;;;;;;4.73;1.60;;;9.70;99.90;;;;;;4897455;29;20171;-65
2021/05/16 05:27:13;;;;;;;2.50;1.73;;;9.80;99.90;;;;;;4897383;29;20191;-64
2021/05/16 05:29:38;;;;;;;2.27;1.50;;;9.90;99.90;;;;;;4896812;29;20262;-66
2021/05/16 05:32:04;;;;;;;2.43;1.60;;;9.80;99.90;;;;;;4897253;29;20179;-66
2021/05/16 05:34:30;;;;;;;2.50;1.13;;;9.70;99.90;;;;;;4897196;29;20186;-64
2021/05/16 05:36:56;;;;;;;2.27;1.23;;;9.70;99.90;;;;;;4897019;29;20501;-66
2021/05/16 05:39:21;;;;;;;2.53;1.60;;;9.70;99.90;;;;;;4896683;29;20183;-66
2021/05/16 05:41:47;;;;;;;1.83;1.40;;;9.70;99.90;;;;;;4897081;29;20222;-65
2021/05/16 05:44:13;;;;;;;4.20;2.03;;;9.70;99.90;;;;;;4897129;29;20171;-65
2021/05/16 05:46:39;;;;;;;3.77;1.63;;;9.70;99.90;;;;;;4896354;29;20203;-66
2021/05/16 05:49:04;;;;;;;2.07;1.27;;;9.80;99.90;;;;;;4896367;29;20427;-65
2021/05/16 05:51:30;;;;;;;2.13;1.40;;;9.90;99.90;;;;;;4897027;29;20591;-66
2021/05/16 05:53:56;;;;;;;4.23;1.70;;;9.90;99.90;;;;;;4896945;29;20183;-65
2021/05/16 05:56:21;;;;;;;1.80;1.63;;;9.90;99.90;;;;;;4896792;29;20680;-65
2021/05/16 05:58:47;;;;;;;2.23;1.57;;;10.00;99.90;;;;;;4896547;29;20171;-66
2021/05/16 06:01:12;;;;;;;1.73;1.17;;;10.00;99.90;;;;;;4896706;29;20171;-64
2021/05/16 06:03:38;;;;;;;1.73;1.50;;;10.10;99.90;;;;;;4896739;29;20605;-66
2021/05/16 06:06:04;;;;;;;1.30;1.20;;;10.00;99.90;;;;;;4896595;29;20171;-65
2021/05/16 06:08:29;;;;;;;3.07;1.33;;;10.00;99.90;;;;;;4896585;29;20175;-66
2021/05/16 06:10:55;;;;;;;2.67;1.23;;;10.00;99.90;;;;;;4896002;29;20186;-65
2021/05/16 06:13:21;;;;;;;1.20;1.10;;;10.20;99.90;;;;;;4896636;29;20187;-65
2021/05/16 06:15:47;;;;;;;2.20;1.17;;;10.40;99.90;;;;;;4896657;29;20175;-65
2021/05/16 06:18:12;;;;;;;1.27;1.10;;;10.80;99.90;;;;;;4896590;29;20273;-66
2021/05/16 06:20:38;;;;;;;3.17;1.50;;;11.10;99.90;;;;;;4895879;29;20222;-65
2021/05/16 06:23:05;;;;;;;1.20;1.10;;;11.40;99.90;;;;;;4896225;29;20211;-65
2021/05/16 06:25:31;;;;;;;1.30;1.17;;;11.40;99.90;;;;;;4896469;29;20167;-66
2021/05/16 06:27:57;;;;;;;1.57;1.00;;;11.40;99.90;;;;;;4896268;29;20443;-64
2021/05/16 06:30:25;;;;;;;1.93;0.93;;;11.60;99.90;;;;;;4895508;29;20175;-65
2021/05/16 06:32:51;;;;;;;1.47;1.23;;;11.80;99.90;;;;;;4896457;29;20304;-65
2021/05/16 06:35:17;;;;;;;2.97;1.00;;;11.90;99.90;;;;;;4896220;29;20808;-65
2021/05/16 06:37:44;;;;;;;2.17;1.30;;;12.00;99.90;;;;;;4929184;23;20233;-66
2021/05/16 06:40:11;;;;;;;1.10;1.00;;;12.30;99.90;;;;;;4914437;29;20253;-67
2021/05/16 06:42:37;;;;;;;3.13;1.60;;;12.50;99.90;;;;;;4913592;29;20458;-66
2021/05/16 06:45:04;;;;;;;1.90;1.40;;;12.40;99.90;;;;;;4914954;29;20430;-67
2021/05/16 06:47:29;;;;;;;1.47;1.33;;;12.40;99.90;;;;;;4905162;29;20764;-66
2021/05/16 06:49:55;;;;;;;3.47;1.67;;;12.50;99.90;;;;;;4895401;29;20419;-67
2021/05/16 06:52:21;;;;;;;1.60;0.90;;;12.70;99.90;;;;;;4895962;29;20701;-67
2021/05/16 06:54:48;;;;;;;0.93;0.80;;;12.80;99.90;;;;;;4895966;29;20581;-66
2021/05/16 06:57:17;;;;;;;5.83;1.40;;;13.10;99.90;;;;;;4895908;29;20872;-66
2021/05/16 06:59:44;;;;;;;1.67;1.40;;;13.40;99.90;;;;;;4894515;29;20426;-66
2021/05/16 07:02:09;;;;;;;3.10;1.57;;;13.70;99.90;;;;;;4895888;29;20469;-67
2021/05/16 07:04:35;;;;;;;2.20;1.33;;;13.80;99.90;;;;;;4895894;29;20424;-67
2021/05/16 07:07:01;;;;;;;2.87;1.10;;;13.70;99.90;;;;;;4895762;29;20198;-66
2021/05/16 07:09:27;;;;;;;2.50;1.10;;;13.60;99.90;;;;;;4895181;29;20182;-66
2021/05/16 07:11:52;;;;;;;2.30;1.37;;;13.50;99.90;;;;;;4896107;29;20782;-67
2021/05/16 07:14:18;;;;;;;3.83;1.20;;;13.50;99.90;;;;;;4895648;29;20265;-66
2021/05/16 07:16:44;;;;;;;1.80;1.03;;;13.50;99.90;;;;;;4895623;29;20195;-66
2021/05/16 07:19:09;;;;;;;1.60;1.50;;;13.40;99.90;;;;;;4895205;29;20187;-66
2021/05/16 07:21:35;;;;;;;1.80;1.33;;;13.20;99.90;;;;;;4895470;29;20195;-66
2021/05/16 07:24:00;;;;;;;1.93;1.03;;;13.10;99.90;;;;;;4895688;29;20190;-67
2021/05/16 07:26:26;;;;;;;2.67;1.30;;;12.90;99.90;;;;;;4895479;29;20653;-67
2021/05/16 07:28:52;;;;;;;2.93;1.23;;;12.90;99.90;;;;;;4894958;29;20198;-66
2021/05/16 07:31:17;;;;;;;2.40;1.00;;;12.90;99.90;;;;;;4895590;29;20253;-67
2021/05/16 07:33:43;;;;;;;1.63;1.23;;;12.80;99.90;;;;;;4895630;29;20386;-66
2021/05/16 07:36:09;;;;;;;4.00;1.00;;;12.90;99.90;;;;;;4895513;29;20179;-66
2021/05/16 07:38:35;;;;;;;3.53;1.20;;;12.90;99.90;;;;;;4895152;29;20274;-67
2021/05/16 07:41:01;;;;;;;1.73;1.50;;;13.00;99.90;;;;;;4895302;29;20428;-66
2021/05/16 07:43:27;;;;;;;2.43;1.00;;;13.00;99.90;;;;;;4895444;29;20833;-67
2021/05/16 07:45:53;;;;;;;2.67;1.20;;;13.20;99.90;;;;;;4895489;29;20798;-67
2021/05/16 07:48:19;;;;;;;1.60;1.30;;;13.40;99.90;;;;;;4895568;29;20443;-67
2021/05/16 07:50:45;;;;;;;1.70;1.30;;;13.80;99.90;;;;;;4894724;29;20552;-65
2021/05/16 07:53:11;;;;;;;1.47;1.37;;;14.30;99.90;;;;;;4895546;29;20600;-67
2021/05/16 07:55:40;;;;;;;2.80;1.60;;;14.70;99.90;;;;;;4895509;29;20443;-67
2021/05/16 07:58:06;;;;;;;2.80;2.10;;;14.60;99.90;;;;;;4895697;29;20451;-66
2021/05/16 08:00:31;;;;;;;2.10;1.43;;;14.20;99.90;;;;;;4895110;29;20476;-67
2021/05/16 08:02:57;;;;;;;2.07;1.17;;;14.10;99.90;;;;;;4895384;29;20700;-67
2021/05/16 08:05:22;;;;;;;4.47;3.20;;;13.90;99.90;;;;;;4895267;29;20187;-66
2021/05/16 08:07:48;;;;;;;3.77;1.70;;;13.90;99.90;;;;;;4895317;29;20218;-66
2021/05/16 08:10:19;;;;;;;2.80;1.80;;;13.50;99.90;;;;;;4895579;29;20657;-66
2021/05/16 08:12:45;;;;;;;3.23;2.03;;;12.90;99.90;;;;;;4898975;29;20250;-66
2021/05/16 08:15:11;;;;;;;4.80;3.10;;;12.40;99.90;;;;;;4898744;29;20841;-66
2021/05/16 08:17:36;;;;;;;2.87;1.50;;;12.00;99.90;;;;;;4898627;29;20281;-66
2021/05/16 08:20:05;;;;;;;5.87;2.30;;;11.80;99.90;;;;;;4896920;29;20815;-66
2021/05/16 08:22:31;;;;;;;4.40;1.97;;;11.80;99.90;;;;;;4898536;29;20294;-66
2021/05/16 08:24:56;;;;;;;2.43;1.73;;;12.00;99.90;;;;;;4898489;29;20465;-66
2021/05/16 08:27:22;;;;;;;2.23;1.60;;;12.10;99.90;;;;;;4898510;29;20604;-66
2021/05/16 08:29:47;;;;;;;5.30;2.80;;;12.40;99.90;;;;;;4897859;29;20615;-66
2021/05/16 08:32:14;;;;;;;2.60;1.70;;;12.90;99.90;;;;;;4898581;29;20179;-66
2021/05/16 08:34:40;;;;;;;7.03;2.20;;;13.30;99.90;;;;;;4898322;29;20640;-66
2021/05/16 08:37:09;;;;;;;7.77;2.20;;;13.70;99.90;;;;;;4898075;29;20526;-66
2021/05/16 08:39:35;;;;;;;3.13;1.70;;;14.20;99.90;;;;;;4897636;29;20439;-65
2021/05/16 08:42:00;;;;;;;3.77;1.80;;;14.70;99.90;;;;;;4898288;29;20523;-65
2021/05/16 08:44:26;;;;;;;3.57;1.80;;;15.00;99.90;;;;;;4898274;29;20175;-66
2021/05/16 08:46:52;;;;;;;3.07;1.67;;;15.40;99.90;;;;;;4898116;29;20203;-65
2021/05/16 08:49:19;;;;;;;3.50;2.70;;;15.80;99.90;;;;;;4897807;29;20175;-66
2021/05/16 08:51:49;;;;;;;4.03;1.97;;;16.00;99.90;;;;;;4897966;29;20909;-66
2021/05/16 08:54:19;;;;;;;3.07;1.33;;;16.10;99.90;;;;;;4898039;29;20924;-66
2021/05/16 08:56:50;;;;;;;3.00;2.40;;;16.40;99.90;;;;;;4898129;29;20474;-67
2021/05/16 08:59:15;;;;;;;4.57;2.33;;;16.20;99.90;;;;;;4897536;29;20498;-66
2021/05/16 09:01:53;;;;;;;2.23;1.60;;;16.20;99.90;;;;;;4897951;29;20512;-67
2021/05/16 09:04:33;;;;;;;3.23;1.60;;;16.10;99.90;;;;;;4897766;29;20257;-66
2021/05/16 09:07:00;;;;;;;4.37;2.47;;;15.90;99.90;;;;;;4897767;29;20820;-66
2021/05/16 09:09:34;;;;;;;2.87;2.20;;;16.00;99.90;;;;;;4897319;29;20434;-66
2021/05/16 09:12:01;;;;;;;5.23;2.13;;;16.30;99.90;;;;;;4897983;29;20484;-66
2021/05/16 09:14:44;;;;;;;5.03;3.03;;;17.10;99.90;;;;;;4897704;29;20435;-66
2021/05/16 09:17:30;;;;;;;6.27;2.47;;;17.30;99.90;;;;;;4897550;29;20447;-66
2021/05/16 09:20:00;;;;;;;2.97;2.30;;;17.80;99.90;;;;;;4897070;29;20429;-66
2021/05/16 09:22:49;;;;;;;3.60;2.30;;;17.90;99.90;;;;;;4896592;29;20558;-66
2021/05/16 09:25:18;;;;;;;3.00;1.83;;;18.00;99.90;;;;;;4897477;29;20432;-67
2021/05/16 09:27:47;;;;;;;6.10;2.50;;;18.40;99.90;;;;;;4896131;29;20443;-66
2021/05/16 09:30:16;;;;;;;3.07;1.90;;;18.80;99.90;;;;;;4895540;29;20416;-65
2021/05/16 09:32:56;;;;;;;2.60;1.40;;;18.40;99.90;;;;;;4897225;29;20419;-66
2021/05/16 09:35:34;;;;;;;5.07;2.00;;;17.60;99.90;;;;;;4897607;29;20796;-66
2021/05/16 09:38:06;;;;;;;5.10;2.30;;;17.30;99.90;;;;;;4897087;29;20462;-66
2021/05/16 09:40:37;;;;;;;2.07;1.87;;;17.60;99.90;;;;;;4896612;29;20431;-66
2021/05/16 09:43:15;;;;;;;4.73;2.37;;;17.90;99.90;;;;;;4897097;29;21113;-67
2021/05/16 09:45:42;;;;;;;3.33;1.90;;;18.70;99.90;;;;;;4897108;29;20423;-67
2021/05/16 09:48:30;;;;;;;1.90;1.80;;;19.50;99.90;;;;;;4896854;29;20450;-67
2021/05/16 09:51:14;;;;;;;3.90;1.60;;;20.00;99.10;;;;;;4896541;29;20415;-67
2021/05/16 09:53:47;;;;;;;1.93;1.37;;;20.30;97.10;;;;;;4897276;29;20547;-65
2021/05/16 09:56:14;;;;;;;2.13;1.30;;;20.40;94.80;;;;;;4897042;29;20422;-66
2021/05/16 09:58:40;;;;;;;2.73;1.57;;;19.50;94.50;;;;;;4896356;29;20453;-66
2021/05/16 10:01:07;;;;;;;5.53;1.60;;;19.70;95.70;;;;;;4896678;29;20866;-67
2021/05/16 10:03:33;;;;;;;2.20;1.97;;;19.60;94.60;;;;;;4896701;29;20987;-66
2021/05/16 10:05:59;;;;;;;4.17;1.70;;;19.30;95.10;;;;;;4896753;29;20423;-67
2021/05/16 10:08:24;;;;;;;3.33;1.90;;;18.90;94.60;;;;;;4896624;29;20443;-67
2021/05/16 10:10:49;;;;;;;3.40;1.67;;;19.00;94.20;;;;;;4895983;29;20201;-67
2021/05/16 10:13:16;;;;;;;3.13;1.87;;;19.30;93.80;;;;;;4896528;29;20861;-66
2021/05/16 10:15:42;;;;;;;3.40;2.43;;;19.80;91.10;;;;;;4896559;29;20207;-66
2021/05/16 10:18:10;;;;;;;3.87;1.60;;;20.70;86.70;;;;;;4896277;29;20451;-67
2021/05/16 10:20:38;;;;;;;3.07;1.90;;;20.90;85.10;;;;;;4895603;29;20423;-67
2021/05/16 10:23:05;;;;;;;2.47;1.60;;;20.80;83.90;;;;;;4896352;29;20458;-66
2021/05/16 10:25:45;;;;;;;2.57;1.83;;;21.50;82.30;;;;;;4896905;29;20427;-66
2021/05/16 10:28:15;;;;;;;2.50;1.23;;;22.60;79.30;;;;;;4896581;29;20443;-66
2021/05/16 10:30:54;;;;;;;5.00;1.67;;;22.80;77.10;;;;;;4895653;29;20430;-67
2021/05/16 10:33:36;;;;;;;3.63;2.03;;;22.00;76.10;;;;;;4896182;29;20411;-68
2021/05/16 10:36:02;;;;;;;5.40;1.67;;;21.80;80.20;;;;;;4895965;29;20933;-66
2021/05/16 10:38:35;;;;;;;2.80;1.60;;;21.10;76.10;;;;;;4895977;29;20463;-66
2021/05/16 10:41:25;;;;;;;4.40;1.53;;;20.30;79.80;;;;;;4895766;29;20439;-66
2021/05/16 10:43:51;;;;;;;3.03;1.90;;;19.70;84.00;;;;;;4896288;29;20416;-68
2021/05/16 10:46:39;;;;;;;6.43;2.57;;;19.20;84.50;;;;;;4896221;29;20498;-66
2021/05/16 10:49:25;;;;;;;2.33;1.40;;;18.70;85.80;;;;;;4895537;29;20261;-67
2021/05/16 10:51:51;;;;;;;2.50;1.57;;;18.40;89.40;;;;;;4896077;29;20412;-66
2021/05/16 10:54:30;;;;;;;3.10;2.17;;;18.90;90.40;;;;;;4896012;29;20474;-67
2021/05/16 10:57:18;;;;;;;6.97;2.13;;;20.80;87.10;;;;;;4895855;29;20461;-66
2021/05/16 10:59:45;;;;;;;3.20;1.33;;;22.70;76.60;;;;;;4895620;29;20463;-67
2021/05/16 11:02:10;;;;;;;4.33;1.90;;;23.20;70.80;;;;;;4896073;29;20889;-66
2021/05/16 11:04:50;;;;;;;4.73;3.00;;;23.00;71.80;;;;;;4895921;29;20467;-66
2021/05/16 11:07:33;;;;;;;2.77;2.40;;;24.00;68.10;;;;;;4895674;29;20201;-67
2021/05/16 11:10:27;;;;;;;2.30;1.73;;;25.00;61.30;;;;;;4895144;29;20994;-66
2021/05/16 11:12:52;;;;;;;2.37;1.40;;;27.10;58.20;;;;;;4895786;29;20427;-67
2021/05/16 11:15:25;;;;;;;2.37;1.27;;;26.10;54.70;;;;;;4895637;29;20976;-67
2021/05/16 11:17:51;;;;;;;4.50;3.00;;;25.40;56.80;;;;;;4895616;29;20285;-67
2021/05/16 11:20:18;;;;;;;3.13;1.80;;;26.10;55.40;;;;;;4895007;29;20924;-67
2021/05/16 11:22:44;;;;;;;3.07;1.73;;;25.40;54.70;;;;;;4895598;29;20469;-66
2021/05/16 11:25:10;;;;;;;2.30;1.40;;;23.80;55.30;;;;;;4895737;29;20415;-67
2021/05/16 11:27:36;;;;;;;1.97;1.40;;;23.50;56.60;;;;;;4895745;29;20198;-67
2021/05/16 11:30:08;;;;;;;3.43;2.10;;;22.50;58.40;;;;;;4894911;29;20510;-67
2021/05/16 11:32:34;;;;;;;2.20;1.40;;;23.90;57.20;;;;;;4895394;29;20870;-66
2021/05/16 11:35:07;;;;;;;2.40;1.20;;;26.20;53.60;;;;;;4895692;29;20419;-68
2021/05/16 11:37:34;;;;;;;2.07;1.50;;;28.60;49.30;;;;;;4895641;29;20969;-67
2021/05/16 11:40:20;;;;;;;1.67;1.50;;;29.50;47.20;;;;;;4894757;29;20453;-67
2021/05/16 11:42:46;;;;;;;3.00;1.77;;;30.50;46.20;;;;;;4895338;29;20769;-67
2021/05/16 11:45:17;;;;;;;4.07;1.70;;;29.40;43.70;;;;;;4896444;29;20439;-67
2021/05/16 11:47:44;;;;;;;1.63;1.20;;;28.50;44.90;;;;;;4899626;29;20956;-67
2021/05/16 11:50:11;;;;;;;1.83;1.30;;;29.40;45.30;;;;;;4898597;29;20917;-67
2021/05/16 11:52:37;;;;;;;2.20;1.63;;;29.40;44.00;;;;;;4899155;29;20422;-68
2021/05/16 11:55:11;;;;;;;3.00;2.27;;;30.60;44.00;;;;;;4899094;29;20488;-67
2021/05/16 11:57:44;;;;;;;4.50;1.60;;;32.20;42.00;;;;;;4899226;29;20209;-67
2021/05/16 12:00:12;;;;;;;2.73;1.73;;;33.90;40.30;;;;;;4898158;29;21020;-67
2021/05/16 12:02:38;;;;;;;3.00;1.67;;;34.80;38.10;;;;;;4898358;29;20486;-67
2021/05/16 12:05:04;;;;;;;2.93;1.67;;;33.70;38.20;;;;;;4898705;29;20949;-67
2021/05/16 12:07:30;;;;;;;3.00;1.87;;;31.30;38.50;;;;;;4898498;29;20201;-66
2021/05/16 12:09:56;;;;;;;2.20;1.60;;;29.20;40.70;;;;;;4897820;29;20423;-67
2021/05/16 12:12:25;;;;;;;4.17;1.40;;;29.20;39.90;;;;;;4898938;29;20550;-66
2021/05/16 12:14:55;;;;;;;2.83;2.00;;;28.20;41.60;;;;;;4898454;29;20195;-66
2021/05/16 12:17:28;;;;;;;2.30;1.40;;;27.70;42.40;;;;;;4898783;29;20446;-67
2021/05/16 12:19:53;;;;;;;2.40;1.50;;;26.70;43.10;;;;;;4897695;29;20438;-67
2021/05/16 12:22:19;;;;;;;2.30;1.50;;;26.80;42.10;;;;;;4898039;29;20956;-67
2021/05/16 12:24:46;;;;;;;2.20;1.43;;;25.60;44.20;;;;;;4898071;29;20183;-67
2021/05/16 12:27:14;;;;;;;2.40;1.30;;;24.70;45.30;;;;;;4898636;29;20203;-66
2021/05/16 12:29:40;;;;;;;2.50;1.80;;;24.20;46.60;;;;;;4897506;29;20411;-67
2021/05/16 12:32:10;;;;;;;5.23;4.73;;;23.80;47.60;;;;;;4898196;29;20494;-66
2021/05/16 12:34:37;;;;;;;4.10;1.80;;;23.10;48.70;;;;;;4898319;29;20461;-67
2021/05/16 12:37:22;;;;;;;1.47;1.37;;;21.80;50.20;;;;;;4923366;23;21244;-65
2021/05/16 12:39:50;;;;;;;1.80;1.70;;;20.90;52.20;;;;;;4916602;29;20450;-65
2021/05/16 12:42:27;;;;;;;3.90;1.73;;;20.20;54.30;;;;;;4917138;29;20908;-65
2021/05/16 12:44:54;;;;;;;2.50;1.80;;;19.90;55.50;;;;;;4917067;29;20429;-65
2021/05/16 12:47:27;;;;;;;4.60;2.13;;;19.60;56.90;;;;;;4910929;29;20439;-65
2021/05/16 12:50:04;;;;;;;3.83;1.80;;;19.60;57.20;;;;;;4897548;29;20415;-66
2021/05/16 12:52:30;;;;;;;3.10;2.10;;;20.30;57.30;;;;;;4898068;29;20439;-65